Time,TemperatureF,DewpointF,PressureIn,WindDirection,WindDirectionDegrees,WindSpeedMPH,WindSpeedGustMPH,Humidity,HourlyPrecipIn,Conditions,Clouds,dailyrainin,SoftwareType,DateUTC
2013-09-12 00:03:00,63.0,-99.9,-100.00,South,171,6.0,6.0,-999,-99.99,,,-99.99,,2013-09-12 07:03:00,
2013-09-12 01:20:00,64.0,-99.9,-100.00,SSE,157,10.0,11.0,-999,-99.99,,,-99.99,,2013-09-12 08:20:00,
2013-09-12 01:52:00,64.0,-99.9,-100.00,South,174,4.0,11.0,-999,-99.99,,,-99.99,,2013-09-12 08:52:00,
2013-09-12 02:12:00,64.0,-99.9,-100.00,SSE,157,10.0,11.0,-999,-99.99,,,-99.99,,2013-09-12 09:12:00,
2013-09-12 03:30:00,60.0,-99.9,-100.00,SE,138,7.0,9.0,-999,-99.99,,,-99.99,,2013-09-12 10:30:00,
2013-09-12 04:22:00,60.0,-99.9,-100.00,SE,138,7.0,9.0,-999,-99.99,,,-99.99,,2013-09-12 11:22:00,
2013-09-12 05:30:00,59.0,-99.9,-100.00,East,97,5.0,8.0,-999,-99.99,,,-99.99,,2013-09-12 12:30:00,
2013-09-12 06:11:00,59.0,-99.9,-100.00,East,97,5.0,8.0,-999,-99.99,,,-99.99,,2013-09-12 13:11:00,
2013-09-12 06:22:00,59.0,-99.9,-100.00,East,97,5.0,8.0,-999,-99.99,,,-99.99,,2013-09-12 13:22:00,
2013-09-12 07:00:00,54.0,-99.9,-100.00,West,261,2.0,3.0,-999,-99.99,,,-99.99,,2013-09-12 14:00:00,
2013-09-12 07:43:00,54.0,-99.9,-100.00,West,261,2.0,3.0,-999,-99.99,,,-99.99,,2013-09-12 14:43:00,
2013-09-12 07:52:00,54.0,-99.9,-100.00,West,261,2.0,3.0,-999,-99.99,,,-99.99,,2013-09-12 14:52:00,
2013-09-12 08:10:00,68.0,-99.9,-100.00,ENE,73,0.0,1.0,-999,-99.99,,,-99.99,,2013-09-12 15:10:00,
2013-09-12 08:54:00,68.0,-99.9,-100.00,ENE,73,0.0,1.0,-999,-99.99,,,-99.99,,2013-09-12 15:54:00,
2013-09-12 09:03:00,68.0,-99.9,-100.00,ENE,73,0.0,1.0,-999,-99.99,,,-99.99,,2013-09-12 16:03:00,
2013-09-12 10:00:00,78.0,-99.9,-100.00,ESE,121,12.0,18.0,-999,-99.99,,,-99.99,,2013-09-12 17:00:00,
2013-09-12 10:23:00,76.0,-99.9,-100.00,SE,144,17.0,17.0,-999,-99.99,,,-99.99,,2013-09-12 17:23:00,
2013-09-12 10:50:00,82.0,-99.9,-100.00,SSE,150,8.0,18.0,-999,-99.99,,,-99.99,,2013-09-12 17:50:00,
2013-09-12 10:54:00,78.0,-99.9,-100.00,ESE,121,12.0,18.0,-999,-99.99,,,-99.99,,2013-09-12 17:54:00,
2013-09-12 17:22:00,82.0,-99.9,-100.00,SSE,160,11.0,21.0,-999,-99.99,,,-99.99,,2013-09-13 00:22:00,
2013-09-12 17:32:00,82.0,-99.9,-100.00,SSE,160,11.0,21.0,-999,-99.99,,,-99.99,,2013-09-13 00:32:00,
2013-09-12 18:11:00,80.0,-99.9,-100.00,SSE,150,18.0,20.0,-999,-99.99,,,-99.99,,2013-09-13 01:11:00,
2013-09-12 18:42:00,78.0,-99.9,-100.00,SSE,147,21.0,23.0,-999,-99.99,,,-99.99,,2013-09-13 01:42:00,
2013-09-12 18:53:00,78.0,-99.9,-100.00,SSE,147,21.0,23.0,-999,-99.99,,,-99.99,,2013-09-13 01:53:00,
2013-09-12 19:10:00,72.0,-99.9,-100.00,SE,137,15.0,19.0,-999,-99.99,,,-99.99,,2013-09-13 02:10:00,
2013-09-12 19:12:00,75.0,-99.9,-100.00,SE,140,14.0,22.0,-999,-99.99,,,-99.99,,2013-09-13 02:12:00,
2013-09-12 19:22:00,75.0,-99.9,-100.00,SE,140,14.0,22.0,-999,-99.99,,,-99.99,,2013-09-13 02:22:00,
2013-09-12 19:43:00,73.0,-99.9,-100.00,SE,142,15.0,19.0,-999,-99.99,,,-99.99,,2013-09-13 02:43:00,
2013-09-12 19:53:00,72.0,-99.9,-100.00,SE,137,15.0,19.0,-999,-99.99,,,-99.99,,2013-09-13 02:53:00,
2013-09-12 20:02:00,72.0,-99.9,-100.00,SE,137,15.0,19.0,-999,-99.99,,,-99.99,,2013-09-13 03:02:00,
2013-09-12 21:54:00,68.0,-99.9,-100.00,SSE,152,14.0,15.0,-999,-99.99,,,-99.99,,2013-09-13 04:54:00,
2013-09-12 22:03:00,68.0,-99.9,-100.00,SSE,152,14.0,15.0,-999,-99.99,,,-99.99,,2013-09-13 05:03:00,
2013-09-12 22:10:00,65.0,-99.9,-100.00,SE,142,12.0,12.0,-999,-99.99,,,-99.99,,2013-09-13 05:10:00,
2013-09-12 22:54:00,65.0,-99.9,-100.00,SE,142,12.0,12.0,-999,-99.99,,,-99.99,,2013-09-13 05:54:00,
2013-09-12 23:02:00,65.0,-99.9,-100.00,SE,142,12.0,12.0,-999,-99.99,,,-99.99,,2013-09-13 06:02:00,